Time;durP1;ratioP1;P1;durP2;ratioP2;P2;SDS_P1;SDS_P2;PMS_P1;PMS_P2;Temp;Humidity;BMP_temperature;BMP_pressure;BME280_temperature;BME280_humidity;BME280_pressure;Samples;Min_cycle;Max_cycle;Signal;HPM_P1;HPM_P2
2022/09/03 00:01:38;;;;;;;3.35;2.72;;;;;;;16.87;48.86;100895.22;5097517;28;20065;-86
2022/09/03 00:04:17;;;;;;;5.75;2.80;;;;;;;16.83;49.04;100895.72;5096985;28;20070;-87
2022/09/03 00:06:50;;;;;;;7.55;2.90;;;;;;;16.81;49.11;100905.28;5097485;28;20042;-87
2022/09/03 00:09:27;;;;;;;7.03;2.70;;;;;;;16.75;49.32;100889.88;5097416;28;20159;-88
2022/09/03 00:12:26;;;;;;;6.00;2.72;;;;;;;16.73;49.09;100892.03;5097205;28;20088;-87
2022/09/03 00:15:03;;;;;;;5.18;2.78;;;;;;;16.70;50.60;100889.78;5096810;28;20049;-87
2022/09/03 00:17:39;;;;;;;5.90;3.28;;;;;;;16.67;50.82;100885.66;5115597;28;20107;-87
2022/09/03 00:20:17;;;;;;;4.78;2.60;;;;;;;16.61;49.91;100886.69;5115529;28;20106;-87
2022/09/03 00:22:59;;;;;;;4.73;2.80;;;;;;;16.58;49.74;100892.66;5115366;28;20047;-87
2022/09/03 00:25:32;;;;;;;5.88;3.05;;;;;;;16.57;49.53;100886.34;5096291;28;20031;-87
2022/09/03 00:28:03;;;;;;;5.68;2.85;;;;;;;16.56;49.76;100883.88;5096811;28;20042;-87
2022/09/03 00:30:29;;;;;;;4.40;2.72;;;;;;;16.53;49.83;100881.66;5097396;28;20027;-87
2022/09/03 00:32:57;;;;;;;7.15;2.83;;;;;;;16.49;50.07;100895.03;5115015;28;20020;-86
2022/09/03 00:35:30;;;;;;;6.87;3.10;;;;;;;16.42;49.81;100886.19;5097125;28;20027;-86
2022/09/03 00:37:59;;;;;;;7.55;3.58;;;;;;;16.40;50.77;100885.59;5096733;28;20076;-86
2022/09/03 00:40:27;;;;;;;5.47;3.22;;;;;;;16.40;50.46;100891.91;5097059;28;20027;-87
2022/09/03 00:43:24;;;;;;;9.57;3.30;;;;;;;16.39;50.11;100889.41;5096494;28;20052;-87
2022/09/03 00:46:09;;;;;;;7.03;3.65;;;;;;;16.39;51.51;100894.91;5114478;28;20525;-86
2022/09/03 00:49:16;;;;;;;4.97;3.50;;;;;;;16.34;50.18;100884.69;5096313;28;20028;-87
2022/09/03 00:51:57;;;;;;;7.93;3.85;;;;;;;16.28;52.18;100886.53;5096566;28;20395;-87
2022/09/03 00:54:48;;;;;;;8.70;3.88;;;;;;;16.27;50.65;100890.34;5096451;28;20156;-87
2022/09/03 00:57:24;;;;;;;8.15;3.67;;;;;;;16.24;51.26;100893.59;5096357;28;20051;-87
2022/09/03 01:00:00;;;;;;;6.20;3.75;;;;;;;16.18;51.68;100880.94;5096487;28;20487;-86
2022/09/03 01:02:41;;;;;;;6.30;3.73;;;;;;;16.13;51.44;100887.13;5096483;28;20023;-87
2022/09/03 01:05:26;;;;;;;9.85;3.80;;;;;;;16.12;51.72;100885.50;5095537;28;20035;-86
2022/09/03 01:08:07;;;;;;;8.40;3.47;;;;;;;16.11;51.48;100889.31;5096426;28;20035;-87
2022/09/03 01:11:05;;;;;;;7.20;3.67;;;;;;;16.05;50.87;100876.63;5096477;28;20023;-86
2022/09/03 01:13:40;;;;;;;6.18;3.75;;;;;;;16.02;52.14;100879.03;5053777;28;20088;-87
2022/09/03 01:16:43;;;;;;;5.73;3.60;;;;;;;16.00;51.80;100876.53;5095679;28;20402;-87
2022/09/03 01:19:34;;;;;;;6.88;3.97;;;;;;;15.99;52.16;100879.53;5095945;28;20035;-87
2022/09/03 01:22:04;;;;;;;11.15;4.10;;;;;;;15.91;53.35;100878.88;5114158;28;20044;-88
2022/09/03 01:24:49;;;;;;;8.27;4.07;;;;;;;15.92;53.50;100880.53;5096026;28;20519;-87
2022/09/03 01:28:01;;;;;;;7.63;4.35;;;;;;;15.90;52.15;100882.69;5096633;28;20055;-88
2022/09/03 01:30:34;;;;;;;7.60;3.90;;;;;;;15.90;52.79;100888.19;5072898;28;20046;-88
2022/09/03 01:33:32;;;;;;;8.43;4.30;;;;;;;15.86;53.73;100880.72;5096153;28;20459;-88
2022/09/03 01:36:05;;;;;;;10.63;4.30;;;;;;;15.85;54.34;100879.06;5096045;28;20080;-88
2022/09/03 01:38:37;;;;;;;6.95;4.20;;;;;;;15.82;52.98;100877.63;5096289;28;20077;-88
2022/09/03 01:44:39;;;;;;;8.67;3.77;;;;;;;15.78;52.93;100879.22;5093790;28;20051;-88
2022/09/03 01:47:46;;;;;;;8.27;4.00;;;;;;;15.77;51.90;100878.38;5092713;28;20043;-88
2022/09/03 01:50:30;;;;;;;6.57;4.20;;;;;;;15.71;52.90;100879.38;5056599;28;20059;-88
2022/09/03 01:53:40;;;;;;;6.32;4.22;;;;;;;15.74;51.72;100878.03;5093321;28;20093;-87
2022/09/03 01:56:41;;;;;;;6.60;4.15;;;;;;;15.72;52.65;100881.03;4995092;28;20048;-88
2022/09/03 01:59:28;;;;;;;7.80;4.20;;;;;;;15.69;53.10;100888.88;4995423;28;20386;-88
2022/09/03 02:02:18;;;;;;;8.45;4.70;;;;;;;15.64;52.95;100881.44;5080721;28;20181;-88
2022/09/03 02:04:55;;;;;;;10.57;4.70;;;;;;;15.60;52.98;100886.59;5092303;28;20032;-89
2022/09/03 02:07:22;;;;;;;12.32;5.20;;;;;;;15.58;53.79;100885.97;5092637;28;20039;-88
2022/09/03 02:09:48;;;;;;;13.85;5.60;;;;;;;15.57;54.63;100870.66;5093308;28;20035;-88
2022/09/03 02:12:19;;;;;;;7.83;4.67;;;;;;;15.54;53.70;100882.06;5093065;28;20028;-88
2022/09/03 02:14:45;;;;;;;11.57;5.65;;;;;;;15.54;53.85;100879.34;5091992;28;20132;-88
2022/09/03 02:17:11;;;;;;;10.77;5.10;;;;;;;15.50;54.37;100877.34;5092174;28;20110;-88
2022/09/03 02:19:40;;;;;;;15.70;5.45;;;;;;;15.50;53.84;100877.34;5092296;28;20036;-88
2022/09/03 02:22:09;;;;;;;9.63;5.25;;;;;;;15.48;53.89;100872.13;5092692;28;20036;-88
2022/09/03 02:24:46;;;;;;;10.43;4.90;;;;;;;15.49;54.23;100878.47;5092032;28;20032;-89
2022/09/03 02:27:12;;;;;;;12.25;5.10;;;;;;;15.47;53.72;100872.38;5092544;28;20128;-88
2022/09/03 02:29:45;;;;;;;9.40;4.70;;;;;;;15.42;53.15;100875.88;5091840;28;20099;-88
2022/09/03 02:32:13;;;;;;;9.48;4.90;;;;;;;15.42;53.13;100876.69;5092191;28;20021;-88
2022/09/03 02:34:52;;;;;;;9.13;5.18;;;;;;;15.38;53.57;100874.69;5093413;28;20097;-88
2022/09/03 02:37:18;;;;;;;9.20;4.93;;;;;;;15.36;53.51;100883.16;5092710;28;20375;-88
2022/09/03 02:39:54;;;;;;;10.53;4.57;;;;;;;15.36;53.31;100876.84;5093361;28;20130;-88
2022/09/03 02:42:20;;;;;;;9.68;4.78;;;;;;;15.33;53.56;100883.63;5092050;28;20071;-89
2022/09/03 02:45:31;;;;;;;9.50;4.95;;;;;;;15.29;53.29;100873.44;5092022;28;20030;-89
2022/09/03 02:47:59;;;;;;;11.80;4.90;;;;;;;15.28;53.82;100864.44;5057372;28;20028;-89
2022/09/03 02:50:37;;;;;;;;;;;;;;;;;;;;;
2022/09/03 02:53:03;;;;;;;9.13;5.20;;;;;;;15.23;53.99;100872.53;5097430;28;20370;-89
2022/09/03 02:55:33;;;;;;;10.13;5.40;;;;;;;15.29;53.96;100873.44;5095611;28;20107;-89
2022/09/03 02:58:04;;;;;;;8.53;5.57;;;;;;;15.33;54.86;100880.91;5062741;28;20038;-89
2022/09/03 03:00:35;;;;;;;11.35;5.32;;;;;;;15.36;54.60;100874.13;5080084;28;20086;-89
2022/09/03 03:03:04;;;;;;;11.05;5.22;;;;;;;15.34;53.39;100868.91;5079369;28;20032;-89
2022/09/03 03:05:44;;;;;;;12.35;5.63;;;;;;;15.35;53.33;100872.47;5095113;28;20089;-89
2022/09/03 03:08:13;;;;;;;10.05;4.68;;;;;;;15.34;54.03;100882.56;5096285;28;20038;-89
2022/09/03 03:10:43;;;;;;;8.07;5.17;;;;;;;15.37;55.29;100882.06;5095445;28;20030;-88
2022/09/03 03:13:16;;;;;;;8.88;4.75;;;;;;;15.33;55.15;100874.63;5095812;28;20111;-89
2022/09/03 03:15:46;;;;;;;13.00;5.30;;;;;;;15.32;55.32;100881.97;5095566;28;20024;-89
2022/09/03 03:18:16;;;;;;;9.32;4.63;;;;;;;15.25;54.31;100876.69;5079066;28;20131;-88
2022/09/03 03:20:42;;;;;;;8.43;5.05;;;;;;;15.24;54.14;100871.47;5095425;28;20027;-89
2022/09/03 03:23:10;;;;;;;13.43;4.87;;;;;;;15.21;54.30;100874.69;5078301;28;20486;-88
2022/09/03 03:25:37;;;;;;;8.55;4.80;;;;;;;15.17;54.52;100868.88;5095267;28;20046;-88
2022/09/03 03:28:15;;;;;;;10.52;5.18;;;;;;;15.15;54.25;100870.22;5095203;28;20357;-88
2022/09/03 03:30:48;;;;;;;8.50;5.13;;;;;;;15.12;54.37;100877.00;5095425;28;20093;-89
2022/09/03 03:33:30;;;;;;;10.15;5.20;;;;;;;15.11;53.83;100874.50;5095402;28;20494;-88
2022/09/03 03:35:55;;;;;;;9.30;5.07;;;;;;;15.06;54.80;100878.78;5094624;28;20028;-88
2022/09/03 03:38:24;;;;;;;12.18;5.10;;;;;;;15.05;54.46;100874.38;5094744;28;20391;-89
2022/09/03 03:40:52;;;;;;;11.65;4.95;;;;;;;15.07;54.59;100880.47;5096614;28;20028;-89
2022/09/03 03:43:18;;;;;;;9.90;4.90;;;;;;;15.05;55.69;100874.38;5098220;28;20027;-88
2022/09/03 03:45:57;;;;;;;10.48;5.20;;;;;;;15.05;54.13;100877.13;5098289;28;20081;-88
2022/09/03 03:48:29;;;;;;;11.25;5.10;;;;;;;15.03;54.62;100871.09;5097971;28;20020;-88
2022/09/03 03:51:00;;;;;;;10.40;4.90;;;;;;;15.03;54.48;100873.81;5097844;28;20368;-89
2022/09/03 03:53:30;;;;;;;8.35;4.82;;;;;;;15.01;55.28;100875.13;5097664;28;20044;-89
2022/09/03 03:56:00;;;;;;;12.07;5.25;;;;;;;15.01;55.43;100886.06;5081007;28;20436;-89
2022/09/03 03:58:32;;;;;;;12.82;4.80;;;;;;;14.98;55.05;100879.16;5097117;28;20036;-89
2022/09/03 04:01:16;;;;;;;10.27;4.72;;;;;;;14.98;54.62;100881.09;5097942;28;20019;-89
2022/09/03 04:03:43;;;;;;;9.20;4.60;;;;;;;14.94;54.68;100872.56;5099025;28;20024;-89
2022/09/03 04:06:10;;;;;;;11.13;4.45;;;;;;;14.94;54.88;100872.56;5097716;28;20043;-89
2022/09/03 04:08:59;;;;;;;9.55;4.40;;;;;;;14.95;54.19;100873.38;5081001;28;20032;-89
2022/09/03 04:11:25;;;;;;;10.40;5.07;;;;;;;14.95;56.57;100874.19;5097392;28;20390;-88
2022/09/03 04:13:55;;;;;;;9.20;4.63;;;;;;;14.93;56.78;100879.09;5097572;28;20024;-88
2022/09/03 04:16:24;;;;;;;7.27;4.60;;;;;;;14.95;55.08;100868.72;5097591;28;20108;-89
2022/09/03 04:18:50;;;;;;;12.77;4.90;;;;;;;14.96;55.61;100872.31;5097345;28;20111;-88
2022/09/03 04:21:18;;;;;;;9.95;4.93;;;;;;;14.93;55.71;100870.88;5097295;28;20056;-88
2022/09/03 04:23:52;;;;;;;8.63;4.55;;;;;;;14.91;55.32;100868.41;5097625;28;20027;-88
2022/09/03 04:26:20;;;;;;;7.70;5.00;;;;;;;14.90;56.08;100872.19;5097012;28;20030;-88
2022/09/03 04:28:47;;;;;;;12.00;5.47;;;;;;;14.92;55.37;100869.22;5097152;28;20031;-88
2022/09/03 04:31:21;;;;;;;9.60;5.00;;;;;;;14.91;55.54;100870.28;5115378;28;20027;-88
2022/09/03 04:33:58;;;;;;;7.93;4.82;;;;;;;14.89;55.87;100862.34;5097422;28;20035;-88
2022/09/03 04:36:25;;;;;;;7.88;4.43;;;;;;;14.90;55.81;100865.91;5096762;28;20051;-88
2022/09/03 04:38:59;;;;;;;8.15;4.50;;;;;;;14.88;55.06;100868.03;5097036;28;20054;-88
2022/09/03 04:41:27;;;;;;;8.70;4.57;;;;;;;14.91;55.66;100868.41;5096706;28;20047;-88
2022/09/03 04:43:55;;;;;;;6.15;4.28;;;;;;;14.90;55.90;100865.91;5097481;28;20031;-88
2022/09/03 04:46:31;;;;;;;10.60;4.57;;;;;;;14.91;56.37;100864.81;5097128;28;20027;-90
2022/09/03 04:49:00;;;;;;;9.18;4.60;;;;;;;14.90;56.09;100874.13;5081619;28;20040;-88
2022/09/03 04:51:32;;;;;;;9.82;4.93;;;;;;;14.90;56.02;100872.19;5096401;28;20058;-89
2022/09/03 04:54:01;;;;;;;11.10;5.03;;;;;;;14.93;56.66;100867.34;5096988;28;20031;-89
2022/09/03 04:56:29;;;;;;;9.05;4.30;;;;;;;14.95;57.05;100876.94;5096506;28;20024;-89
2022/09/03 04:59:03;;;;;;;10.65;4.57;;;;;;;14.96;56.64;100870.41;5096319;28;20110;-88
2022/09/03 05:01:31;;;;;;;10.40;4.82;;;;;;;14.99;56.80;100874.56;5096954;28;20111;-88
2022/09/03 05:04:00;;;;;;;10.30;4.63;;;;;;;15.01;55.92;100873.22;5096566;28;20153;-88
2022/09/03 05:06:26;;;;;;;11.30;4.90;;;;;;;15.05;55.58;100877.13;5096356;28;20023;-88
2022/09/03 05:08:53;;;;;;;11.88;4.90;;;;;;;15.06;55.12;100869.78;5096164;28;20111;-89
2022/09/03 05:11:22;;;;;;;12.07;5.20;;;;;;;15.07;55.56;100877.72;5095688;28;20085;-88
2022/09/03 05:13:55;;;;;;;12.73;5.43;;;;;;;15.11;56.25;100874.50;5096008;28;20414;-87
2022/09/03 05:16:22;;;;;;;8.70;5.32;;;;;;;15.16;55.49;100874.56;5096600;28;20039;-88
2022/09/03 05:18:58;;;;;;;11.07;5.07;;;;;;;15.14;55.35;100868.53;5062958;28;20119;-89
2022/09/03 05:21:27;;;;;;;11.32;5.88;;;;;;;15.17;55.69;100868.88;5096630;28;20032;-89
2022/09/03 05:23:56;;;;;;;9.70;5.05;;;;;;;15.17;56.08;100863.41;5096097;28;20034;-89
2022/09/03 05:26:25;;;;;;;11.73;5.15;;;;;;;15.21;55.05;100870.03;5096435;28;20100;-89
2022/09/03 05:28:57;;;;;;;10.85;5.15;;;;;;;15.25;54.73;100864.91;5096460;28;20027;-89
2022/09/03 05:31:26;;;;;;;8.63;5.30;;;;;;;15.29;54.60;100876.19;5115042;28;20034;-89
2022/09/03 05:33:57;;;;;;;13.27;5.78;;;;;;;15.31;54.20;100871.28;5095973;28;20119;-88
2022/09/03 05:36:30;;;;;;;15.48;5.45;;;;;;;15.37;54.59;100873.06;5095784;28;20378;-89
2022/09/03 05:38:57;;;;;;;10.25;4.70;;;;;;;15.40;54.87;100869.84;5096430;28;20049;-88
2022/09/03 05:41:26;;;;;;;12.90;5.60;;;;;;;15.45;54.69;100864.44;5095581;28;20131;-89
2022/09/03 05:43:57;;;;;;;11.17;5.07;;;;;;;15.48;54.10;100866.66;5095922;28;20027;-87
2022/09/03 05:46:30;;;;;;;11.88;5.35;;;;;;;15.55;54.03;100881.00;5113925;28;20114;-88
2022/09/03 05:49:05;;;;;;;16.45;5.25;;;;;;;15.63;54.19;100868.00;5096088;28;20027;-88
2022/09/03 05:51:38;;;;;;;13.63;5.25;;;;;;;15.73;53.95;100870.91;5080038;28;20480;-88
2022/09/03 05:54:07;;;;;;;9.45;4.85;;;;;;;15.79;53.87;100878.13;5095835;28;20032;-88
2022/09/03 05:56:45;;;;;;;16.53;5.10;;;;;;;15.90;54.00;100876.38;5095855;28;20023;-89
2022/09/03 05:59:12;;;;;;;12.27;5.22;;;;;;;15.98;53.40;100873.22;5064147;28;20461;-88
2022/09/03 06:01:50;;;;;;;10.60;4.88;;;;;;;16.09;52.95;100879.69;5113624;28;20094;-89
2022/09/03 06:04:32;;;;;;;11.00;4.88;;;;;;;16.22;52.77;100881.25;5095901;28;20110;-90
2022/09/03 06:06:57;;;;;;;11.85;5.10;;;;;;;16.36;52.71;100870.72;5096070;28;20032;-89
2022/09/03 06:09:23;;;;;;;18.80;5.00;;;;;;;16.46;52.12;100877.19;5095549;28;20445;-92
2022/09/03 06:11:52;;;;;;;10.80;4.97;;;;;;;16.57;51.77;100877.31;5114613;28;20059;-90
2022/09/03 06:14:25;;;;;;;15.68;5.30;;;;;;;16.67;51.56;100875.53;5095987;28;20026;-91
2022/09/03 06:16:51;;;;;;;9.30;5.20;;;;;;;16.75;51.49;100874.25;5079611;28;20108;-88
2022/09/03 06:19:19;;;;;;;9.07;4.78;;;;;;;16.87;51.20;100879.63;5113918;28;20035;-87
2022/09/03 06:21:47;;;;;;;12.33;4.53;;;;;;;16.97;50.52;100882.47;5095507;28;20027;-88
2022/09/03 06:24:23;;;;;;;12.27;4.90;;;;;;;17.10;50.74;100881.25;5097405;28;20035;-88
2022/09/03 06:27:01;;;;;;;11.45;5.35;;;;;;;17.25;50.56;100875.09;5099870;28;20023;-88
2022/09/03 06:29:27;;;;;;;11.00;5.07;;;;;;;17.38;50.13;100873.84;5084053;28;20038;-89
2022/09/03 06:31:52;;;;;;;13.50;5.50;;;;;;;17.51;49.70;100884.38;5099453;28;20371;-89
2022/09/03 06:34:18;;;;;;;12.20;5.43;;;;;;;17.64;48.81;100882.28;5099194;28;20326;-86
2022/09/03 06:36:44;;;;;;;10.43;5.30;;;;;;;17.78;48.85;100872.50;5099168;28;20027;-86
2022/09/03 06:39:10;;;;;;;16.13;5.28;;;;;;;17.90;48.83;100875.09;5099228;28;20470;-87
2022/09/03 06:41:38;;;;;;;12.93;5.53;;;;;;;17.98;48.39;100882.00;5095807;28;20044;-87
2022/09/03 06:44:10;;;;;;;14.85;5.60;;;;;;;18.09;48.26;100881.00;5095970;28;20028;-87
2022/09/03 06:46:41;;;;;;;13.10;5.82;;;;;;;18.19;47.91;100877.50;5096607;28;20028;-88
2022/09/03 06:49:12;;;;;;;11.82;4.95;;;;;;;18.29;47.94;100877.56;5095936;28;20075;-88
2022/09/03 06:51:42;;;;;;;15.32;5.25;;;;;;;18.44;47.36;100874.06;5095593;28;20406;-88
2022/09/03 06:54:09;;;;;;;15.20;5.83;;;;;;;18.55;47.24;100883.97;5095289;28;20024;-88
2022/09/03 06:56:41;;;;;;;11.23;5.18;;;;;;;18.63;46.90;100877.16;5095071;28;20051;-87
2022/09/03 06:59:11;;;;;;;9.18;4.97;;;;;;;18.71;46.79;100882.13;5096080;28;20025;-87
2022/09/03 07:01:45;;;;;;;11.00;5.30;;;;;;;18.76;46.62;100875.81;5095567;28;20055;-87
2022/09/03 07:04:12;;;;;;;13.75;5.35;;;;;;;18.76;46.44;100884.06;5095616;28;20075;-87
2022/09/03 07:06:44;;;;;;;12.33;5.23;;;;;;;18.71;46.68;100884.88;5094968;28;20039;-87
2022/09/03 07:09:11;;;;;;;12.68;5.07;;;;;;;18.67;47.03;100882.94;5095966;28;20036;-87
2022/09/03 07:11:49;;;;;;;10.85;4.65;;;;;;;18.61;46.61;100886.75;5095170;28;20024;-88
2022/09/03 07:14:24;;;;;;;12.23;5.65;;;;;;;18.58;46.99;100891.69;5095438;28;20020;-87
2022/09/03 07:16:55;;;;;;;10.48;4.47;;;;;;;18.53;47.26;100888.91;5097024;28;20464;-88
2022/09/03 07:19:20;;;;;;;8.80;4.40;;;;;;;18.52;47.38;100895.50;5095762;28;20032;-86
2022/09/03 07:21:46;;;;;;;12.68;4.38;;;;;;;18.52;47.74;100886.44;5096274;28;20031;-87
2022/09/03 07:24:16;;;;;;;11.40;3.60;;;;;;;18.50;47.83;100885.88;5078291;28;20492;-85
2022/09/03 07:26:48;;;;;;;6.78;3.42;;;;;;;18.53;47.90;100880.69;5079212;28;20032;-85
2022/09/03 07:29:15;;;;;;;9.70;3.17;;;;;;;18.55;47.85;100891.41;5079233;28;20115;-85
2022/09/03 07:31:41;;;;;;;8.65;2.67;;;;;;;18.58;47.64;100885.38;5094648;28;20024;-85
2022/09/03 07:34:09;;;;;;;5.35;2.20;;;;;;;18.61;47.86;100892.25;5094381;28;20050;-85
2022/09/03 07:36:37;;;;;;;3.78;2.00;;;;;;;18.58;47.62;100888.94;5095835;28;20032;-85
2022/09/03 07:39:03;;;;;;;4.68;1.80;;;;;;;18.56;47.42;100895.81;5094632;28;20035;-85
2022/09/03 07:41:32;;;;;;;5.97;1.93;;;;;;;18.55;47.31;100894.16;5094264;28;20076;-84
2022/09/03 07:44:04;;;;;;;5.20;2.00;;;;;;;18.56;47.63;100893.88;5095841;28;20031;-85
2022/09/03 07:46:33;;;;;;;3.80;1.85;;;;;;;18.59;47.56;100898.84;5094746;28;20127;-85
2022/09/03 07:49:02;;;;;;;3.08;1.60;;;;;;;18.68;47.44;100898.34;5095966;28;20028;-85
2022/09/03 07:51:39;;;;;;;2.70;1.73;;;;;;;18.73;48.01;100895.59;5094209;28;20089;-84
2022/09/03 07:54:08;;;;;;;5.50;1.80;;;;;;;18.80;47.46;100898.91;5094209;28;20032;-86
2022/09/03 07:56:40;;;;;;;4.80;1.88;;;;;;;18.84;47.57;100894.53;5094628;28;20028;-85
2022/09/03 07:59:07;;;;;;;11.02;2.28;;;;;;;18.92;47.20;100898.72;5095778;28;20024;-85
2022/09/03 08:01:34;;;;;;;2.70;1.75;;;;;;;18.98;47.43;100894.06;5077224;28;20028;-89
2022/09/03 08:06:56;;;;;;;2.80;1.50;;;;;;;19.09;47.19;100896.56;5093833;28;20042;-89
2022/09/03 08:09:34;;;;;;;4.65;1.60;;;;;;;19.17;46.94;100895.19;5094171;28;20032;-89
2022/09/03 08:12:02;;;;;;;3.50;1.52;;;;;;;19.26;46.87;100888.06;5094298;28;20081;-89
2022/09/03 08:14:30;;;;;;;4.18;1.60;;;;;;;19.33;46.59;100890.56;5095515;28;20036;-89
2022/09/03 08:16:59;;;;;;;6.15;1.85;;;;;;;19.40;46.71;100890.28;5093911;28;20031;-88
2022/09/03 08:19:27;;;;;;;5.83;1.83;;;;;;;19.47;46.88;100896.34;5094075;28;20119;-88
2022/09/03 08:22:10;;;;;;;5.22;1.60;;;;;;;19.57;46.28;100904.59;5094261;28;20028;-89
2022/09/03 08:24:40;;;;;;;6.70;1.88;;;;;;;19.65;46.46;100895.00;5094085;28;20456;-89
2022/09/03 08:27:09;;;;;;;4.38;1.60;;;;;;;19.79;46.10;100903.53;5094537;28;20336;-89
2022/09/03 08:29:35;;;;;;;5.28;1.70;;;;;;;19.85;45.71;100907.13;5093692;28;20144;-89
2022/09/03 08:32:04;;;;;;;4.93;1.60;;;;;;;19.90;45.44;100909.84;5093359;28;20073;-88
2022/09/03 08:34:32;;;;;;;6.25;1.73;;;;;;;19.97;45.19;100904.88;5093279;28;20467;-89
2022/09/03 08:37:00;;;;;;;4.07;1.63;;;;;;;20.05;45.17;100903.50;5093248;28;20028;-88
2022/09/03 08:39:30;;;;;;;5.63;1.50;;;;;;;20.12;44.67;100907.63;5093487;28;20031;-88
2022/09/03 08:42:10;;;;;;;4.32;1.45;;;;;;;20.22;44.93;100916.97;5077197;28;20082;-89
2022/09/03 08:45:02;;;;;;;6.77;1.63;;;;;;;20.28;44.69;100919.44;5093565;28;20035;-89
2022/09/03 08:48:04;;;;;;;6.50;1.63;;;;;;;20.37;44.96;100919.69;5093329;28;20059;-89
2022/09/03 08:51:04;;;;;;;;;;;;;;;;;;;;;
2022/09/03 08:53:39;;;;;;;3.65;1.50;;;;;;;20.59;44.25;100913.00;5094672;28;20456;-88
2022/09/03 08:56:36;;;;;;;4.68;1.65;;;;;;;20.66;44.16;100910.81;5093292;28;20044;-89
2022/09/03 08:59:04;;;;;;;4.10;1.67;;;;;;;;;;5092894;28;20027;-89
2022/09/03 09:01:48;;;;;;;3.17;1.55;;;;;;;20.82;43.35;100915.16;5093030;28;20038;-89
2022/09/03 09:04:59;;;;;;;4.47;2.00;;;;;;;20.88;43.83;100907.69;5094220;28;20040;-89
2022/09/03 09:07:42;;;;;;;3.38;1.83;;;;;;;21.01;43.39;100912.56;5093287;28;20065;-90
2022/09/03 09:10:50;;;;;;;2.95;1.75;;;;;;;21.16;43.23;100924.63;5093231;28;20486;-89
2022/09/03 09:13:35;;;;;;;2.17;1.50;;;;;;;21.28;43.10;100910.50;5093204;28;20020;-89
2022/09/03 09:16:10;;;;;;;7.43;2.10;;;;;;;21.40;42.68;100921.19;5093062;28;20063;-88
2022/09/03 09:18:51;;;;;;;6.03;1.60;;;;;;;21.50;42.55;100929.38;5092686;28;20039;-88
2022/09/03 09:21:38;;;;;;;8.55;1.73;;;;;;;21.54;42.14;100916.69;5093163;28;20028;-88
2022/09/03 09:24:12;;;;;;;5.75;1.77;;;;;;;21.63;41.70;100914.97;5093432;28;20119;-87
2022/09/03 09:26:50;;;;;;;;;;;;;;;;;;;;;
2022/09/03 09:29:15;;;;;;;3.30;1.90;;;;;;;21.87;41.39;100920.53;5093479;28;20032;-85
2022/09/03 09:31:44;;;;;;;5.88;1.90;;;;;;;21.97;41.09;100916.03;5092592;28;20115;-85
2022/09/03 09:34:10;;;;;;;4.05;1.90;;;;;;;22.06;40.75;100909.59;5093918;28;20533;-87
2022/09/03 09:36:54;;;;;;;9.47;1.80;;;;;;;22.15;41.12;100911.75;5075937;28;20036;-85
2022/09/03 09:39:21;;;;;;;7.25;2.08;;;;;;;22.29;40.80;100907.16;5092247;28;20035;-84
2022/09/03 09:42:07;;;;;;;3.95;1.98;;;;;;;22.39;40.61;100895.19;5091909;28;20047;-85
2022/09/03 09:44:32;;;;;;;3.80;1.98;;;;;;;22.56;40.18;100909.38;5092589;28;20035;-85
2022/09/03 09:47:12;;;;;;;4.40;1.87;;;;;;;22.68;39.34;100910.91;5092372;28;20028;-85
2022/09/03 09:49:59;;;;;;;4.28;1.80;;;;;;;22.83;39.53;100918.19;5092630;28;20476;-85
2022/09/03 09:52:28;;;;;;;7.78;2.30;;;;;;;22.94;38.90;100911.38;5092741;28;20082;-85
2022/09/03 09:55:07;;;;;;;3.05;2.03;;;;;;;23.03;38.99;100914.28;5076011;28;20032;-84
2022/09/03 09:57:33;;;;;;;10.05;1.90;;;;;;;23.16;38.87;100910.00;5094154;28;20032;-84
2022/09/03 10:00:17;;;;;;;5.13;1.70;;;;;;;23.33;39.16;100906.72;5079830;28;20387;-84
2022/09/03 10:02:53;;;;;;;5.38;1.70;;;;;;;23.47;38.06;100918.66;5080141;28;20028;-84
2022/09/03 10:05:29;;;;;;;4.68;1.80;;;;;;;23.59;38.04;100907.97;5096731;28;20093;-84
2022/09/03 10:08:04;;;;;;;4.53;1.80;;;;;;;23.79;37.43;100908.75;5096094;28;20028;-85
2022/09/03 10:10:34;;;;;;;4.10;1.80;;;;;;;23.94;37.39;100904.91;5096256;28;20356;-85
2022/09/03 10:13:17;;;;;;;5.45;1.90;;;;;;;24.14;37.20;100901.75;5096296;28;20024;-84
2022/09/03 10:16:03;;;;;;;3.83;1.90;;;;;;;24.33;36.78;100909.16;5096187;28;20082;-85
2022/09/03 10:18:42;;;;;;;4.47;2.00;;;;;;;24.55;36.52;100908.44;5096505;28;20028;-85
2022/09/03 10:21:14;;;;;;;4.82;2.05;;;;;;;24.64;36.73;100900.25;5095901;28;20054;-85
2022/09/03 10:23:51;;;;;;;3.07;1.93;;;;;;;24.82;35.39;100896.53;5096404;28;20418;-85
2022/09/03 10:26:21;;;;;;;10.55;2.40;;;;;;;24.96;35.08;100899.28;5096818;28;20435;-85
2022/09/03 10:28:50;;;;;;;6.28;2.50;;;;;;;24.97;35.35;100895.38;5095974;28;20039;-85
2022/09/03 10:31:40;;;;;;;5.40;2.05;;;;;;;25.20;35.23;100885.16;5096163;28;20023;-85
2022/09/03 10:34:57;;;;;;;4.65;2.08;;;;;;;25.42;35.12;100899.38;5096763;28;20028;-84
2022/09/03 10:38:17;;;;;;;5.20;1.83;;;;;;;25.63;34.80;100894.97;5022009;28;20032;-85
2022/09/03 10:41:22;;;;;;;5.97;2.00;;;;;;;25.74;34.29;100892.75;5065253;28;20115;-85
2022/09/03 10:44:09;;;;;;;3.50;2.03;;;;;;;25.91;34.21;100900.38;5099962;28;20020;-85
2022/09/03 10:46:48;;;;;;;2.83;2.13;;;;;;;25.95;32.86;100892.22;5116958;28;20486;-84
2022/09/03 10:49:42;;;;;;;10.77;2.70;;;;;;;26.06;33.18;100891.66;5099061;28;20028;-83
2022/09/03 10:52:14;;;;;;;7.50;1.83;;;;;;;26.27;32.88;100893.88;5117034;28;20020;-85
2022/09/03 10:54:57;;;;;;;3.00;2.00;;;;;;;26.54;32.64;100894.78;5099520;28;20524;-85
2022/09/03 10:58:04;;;;;;;5.35;1.80;;;;;;;26.93;32.77;100887.56;5098904;28;20081;-85
2022/09/03 11:00:33;;;;;;;8.82;2.10;;;;;;;27.27;31.86;100886.75;5098802;28;20023;-86
2022/09/03 11:03:45;;;;;;;2.78;2.13;;;;;;;27.56;31.93;100887.22;5098491;28;20478;-85
2022/09/03 11:06:23;;;;;;;7.10;1.97;;;;;;;27.95;31.57;100883.38;5117259;28;20059;-85
2022/09/03 11:08:54;;;;;;;4.00;2.10;;;;;;;28.30;30.85;100886.06;5097801;28;20020;-85
2022/09/03 11:11:26;;;;;;;5.72;2.17;;;;;;;28.79;29.39;100894.03;5098433;28;20062;-86
2022/09/03 11:14:14;;;;;;;3.90;2.10;;;;;;;30.15;29.12;100889.03;5098272;28;20043;-87
2022/09/03 11:16:54;;;;;;;10.48;1.95;;;;;;;33.05;25.10;100880.66;5098612;28;20031;-86
2022/09/03 11:19:32;;;;;;;4.37;2.20;;;;;;;35.61;22.45;100889.69;5099219;28;20038;-86
2022/09/03 11:21:57;;;;;;;4.15;2.40;;;;;;;37.80;18.73;100879.03;5098127;28;20356;-85
2022/09/03 11:24:27;;;;;;;4.75;2.50;;;;;;;39.56;17.32;100882.75;5098014;28;20049;-85
2022/09/03 11:26:57;;;;;;;5.70;2.10;;;;;;;41.38;16.77;100872.84;5116236;28;20544;-86
2022/09/03 11:29:31;;;;;;;5.63;2.50;;;;;;;42.75;15.19;100870.59;5099049;28;20388;-89
2022/09/03 11:32:10;;;;;;;5.10;2.67;;;;;;;44.24;14.76;100866.78;5098388;28;20126;-88
2022/09/03 11:34:53;;;;;;;3.80;2.80;;;;;;;45.78;14.44;100856.94;5097980;28;20034;-87
2022/09/03 11:37:23;;;;;;;5.80;3.42;;;;;;;46.72;11.72;100858.16;5097966;28;20034;-87
2022/09/03 11:40:18;;;;;;;4.37;2.97;;;;;;;47.56;12.46;100847.94;5097757;28;20092;-90
2022/09/03 11:42:47;;;;;;;6.40;3.50;;;;;;;48.30;10.80;100842.31;5080536;28;20075;-89
2022/09/03 11:45:37;;;;;;;4.75;3.85;;;;;;;49.58;11.38;100838.84;5080945;28;20047;-89
2022/09/03 11:48:17;;;;;;;4.63;3.83;;;;;;;49.68;10.74;100836.66;5097675;28;20030;-88
2022/09/03 11:50:57;;;;;;;8.63;4.90;;;;;;;49.00;10.40;100837.91;5097418;28;20024;-92
2022/09/03 11:53:33;;;;;;;6.77;4.73;;;;;;;48.99;9.38;100839.19;5097570;28;20024;-88
2022/09/03 11:56:05;;;;;;;10.95;4.70;;;;;;;49.86;9.82;100833.66;5098191;28;20172;-90
2022/09/03 11:58:37;;;;;;;8.48;5.57;;;;;;;50.20;9.14;100840.16;5098655;28;20139;-90
2022/09/03 12:04:08;;;;;;;7.55;5.38;;;;;;;52.06;8.00;100829.25;5105319;28;20035;-90
2022/09/03 12:06:48;;;;;;;8.07;5.97;;;;;;;52.66;7.38;100831.75;5097347;28;20054;-90
2022/09/03 12:09:24;;;;;;;7.32;5.57;;;;;;;51.82;8.07;100829.50;5097119;28;20168;-90
2022/09/03 12:12:01;;;;;;;7.32;5.90;;;;;;;51.92;8.75;100837.50;5097126;28;20528;-91
2022/09/03 12:14:51;;;;;;;6.93;6.28;;;;;;;52.93;8.67;100827.53;5097436;28;20027;-90